createdAt,value
2022-08-24T00:01:58.628Z,3.17
2022-08-24T00:04:27.038Z,3.75
2022-08-24T00:06:57.788Z,3.10
2022-08-24T00:09:25.634Z,3.38
2022-08-24T00:11:53.555Z,3.55
2022-08-24T00:14:21.472Z,3.40
2022-08-24T00:16:49.468Z,3.00
2022-08-24T00:19:18.081Z,2.60
2022-08-24T00:21:45.892Z,3.28
2022-08-24T00:24:15.553Z,3.35
2022-08-24T00:26:43.460Z,2.80
2022-08-24T00:29:11.336Z,2.60
2022-08-24T00:31:39.386Z,3.13
2022-08-24T00:34:07.825Z,3.88
2022-08-24T00:36:36.063Z,3.40
2022-08-24T00:39:05.617Z,3.58
2022-08-24T00:41:37.103Z,3.58
2022-08-24T00:44:06.951Z,3.63
2022-08-24T00:46:46.732Z,3.67
2022-08-24T00:49:24.745Z,3.75
2022-08-24T00:52:06.221Z,3.95
2022-08-24T00:54:46.113Z,3.90
2022-08-24T00:57:21.239Z,4.10
2022-08-24T00:59:55.122Z,4.03
2022-08-24T01:02:27.650Z,4.10
2022-08-24T01:05:02.006Z,3.35
2022-08-24T01:07:33.054Z,4.25
2022-08-24T01:10:09.981Z,3.47
2022-08-24T01:12:48.216Z,3.85
2022-08-24T01:15:30.289Z,3.97
2022-08-24T01:18:16.838Z,3.70
2022-08-24T01:20:52.317Z,3.80
2022-08-24T01:23:37.818Z,4.60
2022-08-24T01:26:07.323Z,3.80
2022-08-24T01:28:39.851Z,3.83
2022-08-24T01:31:09.028Z,4.57
2022-08-24T01:33:37.220Z,4.28
2022-08-24T01:36:15.789Z,4.10
2022-08-24T01:38:46.284Z,4.50
2022-08-24T01:41:14.193Z,4.50
2022-08-24T01:43:42.346Z,4.82
2022-08-24T01:46:10.576Z,4.53
2022-08-24T01:48:38.606Z,4.78
2022-08-24T01:51:06.834Z,3.42
2022-08-24T01:53:34.930Z,5.40
2022-08-24T01:56:04.810Z,3.83
2022-08-24T01:58:32.823Z,4.93
2022-08-24T02:01:00.872Z,5.47
2022-08-24T02:03:30.297Z,5.83
2022-08-24T02:05:59.526Z,3.45
2022-08-24T02:08:27.599Z,6.20
2022-08-24T02:10:56.770Z,5.50
2022-08-24T02:13:28.737Z,7.95
2022-08-24T02:15:56.722Z,4.40
2022-08-24T02:18:24.733Z,8.55
2022-08-24T02:20:53.239Z,8.00
2022-08-24T02:23:22.273Z,8.88
2022-08-24T02:25:50.829Z,12.70
2022-08-24T02:28:20.164Z,14.50
2022-08-24T02:30:50.043Z,12.90
2022-08-24T02:33:17.961Z,17.30
2022-08-24T02:35:46.031Z,14.07
2022-08-24T02:38:13.903Z,17.00
2022-08-24T02:40:41.789Z,18.17
2022-08-24T02:43:09.871Z,17.77
2022-08-24T02:45:40.257Z,18.47
2022-08-24T02:48:10.514Z,16.40
2022-08-24T02:50:40.706Z,16.70
2022-08-24T02:53:08.590Z,17.13
2022-08-24T02:55:39.261Z,18.20
2022-08-24T02:58:07.323Z,18.40
2022-08-24T03:00:36.185Z,19.10
2022-08-24T03:03:04.437Z,18.10
2022-08-24T03:05:34.230Z,18.53
2022-08-24T03:08:02.515Z,18.63
2022-08-24T03:10:32.120Z,16.67
2022-08-24T03:13:01.401Z,17.53
2022-08-24T03:15:30.258Z,17.00
2022-08-24T03:17:58.254Z,17.67
2022-08-24T03:20:26.929Z,16.87
2022-08-24T03:22:56.091Z,9.70
2022-08-24T03:25:26.511Z,11.25
2022-08-24T03:27:54.975Z,10.93
2022-08-24T03:30:25.001Z,12.10
2022-08-24T03:32:52.858Z,10.45
2022-08-24T03:35:22.010Z,8.50
2022-08-24T03:37:50.815Z,9.70
2022-08-24T03:40:24.787Z,11.05
2022-08-24T03:42:53.928Z,9.23
2022-08-24T03:45:23.481Z,7.03
2022-08-24T03:47:51.678Z,9.07
2022-08-24T03:50:21.353Z,9.73
2022-08-24T03:52:49.760Z,9.20
2022-08-24T03:55:19.771Z,11.27
2022-08-24T03:57:47.598Z,14.25
2022-08-24T04:00:16.997Z,12.98
2022-08-24T04:02:45.331Z,8.93
2022-08-24T04:05:14.197Z,7.95
2022-08-24T04:07:42.341Z,9.40
2022-08-24T04:10:14.432Z,9.02
2022-08-24T04:12:43.607Z,8.93
2022-08-24T04:15:13.103Z,9.80
2022-08-24T04:17:41.233Z,7.03
2022-08-24T04:20:10.921Z,7.20
2022-08-24T04:22:38.851Z,7.65
2022-08-24T04:25:09.008Z,7.70
2022-08-24T04:27:38.318Z,8.68
2022-08-24T04:30:09.912Z,7.57
2022-08-24T04:32:42.609Z,8.23
2022-08-24T04:35:11.180Z,8.00
2022-08-24T04:37:38.989Z,7.20
2022-08-24T04:40:09.521Z,7.87
2022-08-24T04:42:39.081Z,7.23
2022-08-24T04:45:10.507Z,6.50
2022-08-24T04:47:38.366Z,5.37
2022-08-24T04:50:07.821Z,5.97
2022-08-24T04:52:37.019Z,5.80
2022-08-24T04:55:06.383Z,5.80
2022-08-24T04:57:36.414Z,7.63
2022-08-24T05:00:10.005Z,7.18
2022-08-24T05:02:44.237Z,6.70
2022-08-24T05:05:13.122Z,7.35
2022-08-24T05:07:41.466Z,7.22
2022-08-24T05:10:11.374Z,8.10
2022-08-24T05:12:44.168Z,8.10
2022-08-24T05:15:13.898Z,8.47
2022-08-24T05:17:42.935Z,9.30
2022-08-24T05:20:18.624Z,8.63
2022-08-24T05:22:46.685Z,8.90
2022-08-24T05:25:14.762Z,9.90
2022-08-24T05:27:42.579Z,8.35
2022-08-24T05:30:13.868Z,10.30
2022-08-24T05:32:41.872Z,9.95
2022-08-24T05:35:10.597Z,10.85
2022-08-24T05:37:40.539Z,12.07
2022-08-24T05:40:12.488Z,14.50
2022-08-24T05:42:41.047Z,13.50
2022-08-24T05:45:10.591Z,13.43
2022-08-24T05:47:40.016Z,10.60
2022-08-24T05:50:09.217Z,12.82
2022-08-24T05:52:37.083Z,13.65
2022-08-24T05:55:06.550Z,13.48
2022-08-24T05:57:37.067Z,13.57
2022-08-24T06:00:09.644Z,13.27
2022-08-24T06:02:38.960Z,14.10
2022-08-24T06:05:08.322Z,13.98
2022-08-24T06:07:36.158Z,13.25
2022-08-24T06:10:32.901Z,14.15
2022-08-24T06:12:52.585Z,13.45
2022-08-24T06:15:22.019Z,14.20
2022-08-24T06:17:51.297Z,13.02
2022-08-24T06:20:19.269Z,7.70
2022-08-24T06:22:47.054Z,14.75
2022-08-24T06:25:32.488Z,16.08
2022-08-24T06:28:00.348Z,15.23
2022-08-24T06:30:30.791Z,13.25
2022-08-24T06:33:02.436Z,12.45
2022-08-24T06:35:30.592Z,12.10
2022-08-24T06:37:58.788Z,9.27
2022-08-24T06:40:28.705Z,11.07
2022-08-24T06:42:56.644Z,11.40
2022-08-24T06:45:24.728Z,13.40
2022-08-24T06:47:52.545Z,19.83
2022-08-24T06:50:22.115Z,18.63
2022-08-24T06:52:52.614Z,18.83
2022-08-24T06:55:20.576Z,19.95
2022-08-24T06:57:52.228Z,17.85
2022-08-24T07:00:21.966Z,18.20
2022-08-24T07:02:49.915Z,18.25
2022-08-24T07:05:18.585Z,20.10
2022-08-24T07:07:47.961Z,19.25
2022-08-24T07:10:15.871Z,16.85
2022-08-24T07:12:43.724Z,16.27
2022-08-24T07:15:16.155Z,16.60
2022-08-24T07:17:44.884Z,14.32
2022-08-24T07:20:14.130Z,13.43
2022-08-24T07:22:42.070Z,10.55
2022-08-24T07:25:13.865Z,12.80
2022-08-24T07:27:41.736Z,12.98
2022-08-24T07:30:28.139Z,12.95
2022-08-24T07:32:57.895Z,12.45
2022-08-24T07:35:26.946Z,13.90
2022-08-24T07:37:56.355Z,14.95
2022-08-24T07:40:27.365Z,13.68
2022-08-24T07:42:58.821Z,14.27
2022-08-24T07:45:28.352Z,13.38
2022-08-24T07:47:56.409Z,13.55
2022-08-24T07:50:24.413Z,13.60
2022-08-24T07:52:52.678Z,14.18
2022-08-24T07:55:20.699Z,13.38
2022-08-24T07:57:49.809Z,13.02
2022-08-24T08:00:20.668Z,12.45
2022-08-24T08:02:50.399Z,14.30
2022-08-24T08:05:22.621Z,12.43
2022-08-24T08:07:52.129Z,12.75
2022-08-24T08:10:21.797Z,14.68
2022-08-24T08:12:50.961Z,13.15
2022-08-24T08:15:19.052Z,13.75
2022-08-24T08:17:47.513Z,15.00
2022-08-24T08:20:24.141Z,14.93
2022-08-24T08:23:09.994Z,14.00
2022-08-24T08:25:38.710Z,13.07
2022-08-24T08:28:24.920Z,13.50
2022-08-24T08:30:54.381Z,13.30
2022-08-24T08:33:22.296Z,13.30
2022-08-24T08:35:52.325Z,14.35
2022-08-24T08:38:20.585Z,13.07
2022-08-24T08:41:08.077Z,13.20
2022-08-24T08:43:46.392Z,12.88
2022-08-24T08:46:40.654Z,12.48
2022-08-24T08:49:38.117Z,12.32
2022-08-24T08:52:51.532Z,12.23
2022-08-24T08:55:31.368Z,11.90
2022-08-24T08:58:18.184Z,11.70
2022-08-24T09:01:04.782Z,12.77
2022-08-24T09:04:15.758Z,12.00
2022-08-24T09:07:17.294Z,12.57
2022-08-24T09:10:04.404Z,12.05
2022-08-24T09:12:59.949Z,13.07
2022-08-24T09:16:10.793Z,11.40
2022-08-24T09:19:00.748Z,13.20
2022-08-24T09:21:54.200Z,12.85
2022-08-24T09:24:43.921Z,15.18
2022-08-24T09:27:26.651Z,16.33
2022-08-24T09:30:10.320Z,15.85
2022-08-24T09:33:06.010Z,18.08
2022-08-24T09:35:54.308Z,17.38
2022-08-24T09:38:35.470Z,19.23
2022-08-24T09:41:45.664Z,16.88
2022-08-24T09:44:55.711Z,16.98
2022-08-24T09:48:32.154Z,17.67
2022-08-24T09:51:57.465Z,16.63
2022-08-24T09:55:09.053Z,15.70
2022-08-24T09:58:00.940Z,16.23
2022-08-24T10:00:39.341Z,17.48
2022-08-24T10:03:39.937Z,16.38
2022-08-24T10:06:24.823Z,13.13
2022-08-24T10:09:15.395Z,16.95
2022-08-24T10:12:00.328Z,13.40
2022-08-24T10:14:47.511Z,15.02
2022-08-24T10:17:30.141Z,14.73
2022-08-24T10:20:20.324Z,14.05
2022-08-24T10:23:18.397Z,13.43
2022-08-24T10:25:57.635Z,14.45
2022-08-24T10:28:45.381Z,14.82
2022-08-24T10:31:19.831Z,15.32
2022-08-24T10:34:05.610Z,15.15
2022-08-24T10:37:30.777Z,15.35
2022-08-24T10:40:28.119Z,14.68
2022-08-24T10:43:34.992Z,15.32
2022-08-24T10:46:38.759Z,14.70
2022-08-24T10:50:04.477Z,11.57
2022-08-24T10:53:34.946Z,13.57
2022-08-24T10:56:12.810Z,12.88
2022-08-24T10:58:52.764Z,14.15
2022-08-24T11:01:30.261Z,13.30
2022-08-24T11:04:04.728Z,13.18
2022-08-24T11:06:37.431Z,11.10
2022-08-24T11:09:13.055Z,13.43
2022-08-24T11:11:48.092Z,13.20
2022-08-24T11:14:29.104Z,12.80
2022-08-24T11:17:17.457Z,12.68
2022-08-24T11:19:46.136Z,11.15
2022-08-24T11:22:40.668Z,11.02
2022-08-24T11:25:17.571Z,11.38
2022-08-24T11:27:53.305Z,10.60
2022-08-24T11:30:28.251Z,11.20
2022-08-24T11:32:59.483Z,10.90
2022-08-24T11:35:37.108Z,10.60
2022-08-24T11:38:18.724Z,10.20
2022-08-24T11:40:56.348Z,9.52
2022-08-24T11:43:39.828Z,10.27
2022-08-24T11:46:24.452Z,10.02
2022-08-24T11:49:07.872Z,9.40
2022-08-24T11:51:46.638Z,10.15
2022-08-24T11:54:29.831Z,9.38
2022-08-24T11:57:14.822Z,9.32
2022-08-24T11:59:56.145Z,9.55
2022-08-24T12:02:34.867Z,8.93
2022-08-24T12:05:09.239Z,8.95
2022-08-24T12:07:55.218Z,9.40
2022-08-24T12:10:39.017Z,9.35
2022-08-24T12:13:21.054Z,9.50
2022-08-24T12:16:00.389Z,8.82
2022-08-24T12:18:38.941Z,8.75
2022-08-24T12:21:12.544Z,8.52
2022-08-24T12:23:46.719Z,8.77
2022-08-24T12:26:23.240Z,8.70
2022-08-24T12:28:57.050Z,8.98
2022-08-24T12:31:47.000Z,8.68
2022-08-24T12:34:25.456Z,8.77
2022-08-24T12:37:04.770Z,7.95
2022-08-24T12:39:51.036Z,8.98
2022-08-24T12:42:25.714Z,8.10
2022-08-24T12:45:00.091Z,8.93
2022-08-24T12:47:36.842Z,8.43
2022-08-24T12:50:15.009Z,8.10
2022-08-24T12:53:36.875Z,7.82
2022-08-24T12:56:45.050Z,8.50
2022-08-24T12:59:24.516Z,8.65
2022-08-24T13:02:02.870Z,8.13
2022-08-24T13:04:43.473Z,9.02
2022-08-24T13:07:29.844Z,8.43
2022-08-24T13:10:14.689Z,8.02
2022-08-24T13:13:20.584Z,8.35
2022-08-24T13:15:57.978Z,7.55
2022-08-24T13:18:51.963Z,8.10
2022-08-24T13:21:46.707Z,7.47
2022-08-24T13:24:44.791Z,6.43
2022-08-24T13:28:03.962Z,6.97
2022-08-24T13:31:05.714Z,6.88
2022-08-24T13:33:41.880Z,7.57
2022-08-24T13:36:44.829Z,6.85
2022-08-24T13:39:39.121Z,7.18
2022-08-24T13:42:24.522Z,7.10
2022-08-24T13:45:17.898Z,7.75
2022-08-24T13:47:56.807Z,8.10
2022-08-24T13:50:50.729Z,8.05
2022-08-24T13:53:58.770Z,6.47
2022-08-24T13:56:49.085Z,7.60
2022-08-24T13:59:44.119Z,7.95
2022-08-24T14:02:36.640Z,8.15
2022-08-24T14:05:25.899Z,9.52
2022-08-24T14:08:13.999Z,9.35
2022-08-24T14:10:58.893Z,8.77
2022-08-24T14:13:47.789Z,10.00
2022-08-24T14:16:59.870Z,9.15
2022-08-24T14:19:45.526Z,8.88
2022-08-24T14:22:30.921Z,9.60
2022-08-24T14:25:17.099Z,9.25
2022-08-24T14:27:48.165Z,10.20
2022-08-24T14:30:50.261Z,9.90
2022-08-24T14:33:34.043Z,10.43
2022-08-24T14:36:19.490Z,9.05
2022-08-24T14:39:06.400Z,10.60
2022-08-24T14:41:54.972Z,10.40
2022-08-24T14:44:45.773Z,10.02
2022-08-24T14:47:33.113Z,10.07
2022-08-24T14:50:13.170Z,10.65
2022-08-24T14:53:01.071Z,9.38
2022-08-24T14:55:42.337Z,9.43
2022-08-24T14:58:31.104Z,8.88
2022-08-24T15:01:34.136Z,8.70
2022-08-24T15:04:37.438Z,9.20
2022-08-24T15:07:26.833Z,10.23
2022-08-24T15:09:56.611Z,8.98
2022-08-24T15:12:42.497Z,8.60
2022-08-24T15:15:23.813Z,8.68
2022-08-24T15:18:02.609Z,7.10
2022-08-24T15:21:03.897Z,8.65
2022-08-24T15:23:50.891Z,7.47
2022-08-24T15:26:33.773Z,7.60
2022-08-24T15:29:14.756Z,7.43
2022-08-24T15:31:44.148Z,7.10
2022-08-24T15:34:12.203Z,7.05
2022-08-24T15:36:41.502Z,6.50
2022-08-24T15:39:09.389Z,6.65
2022-08-24T15:41:42.978Z,6.35
2022-08-24T15:44:21.207Z,5.90
2022-08-24T15:46:58.643Z,5.70
2022-08-24T15:49:32.125Z,5.80
2022-08-24T15:52:06.179Z,6.18
2022-08-24T15:54:43.938Z,6.10
2022-08-24T15:57:30.807Z,6.15
2022-08-24T16:00:12.381Z,5.50
2022-08-24T16:02:39.709Z,5.38
2022-08-24T16:05:21.722Z,5.32
2022-08-24T16:08:10.521Z,5.55
2022-08-24T16:10:44.703Z,5.25
2022-08-24T16:13:26.381Z,5.28
2022-08-24T16:16:03.024Z,5.93
2022-08-24T16:18:49.144Z,5.60
2022-08-24T16:21:28.657Z,5.80
2022-08-24T16:24:09.896Z,6.25
2022-08-24T16:26:59.292Z,5.93
2022-08-24T16:29:53.391Z,5.68
2022-08-24T16:32:30.582Z,5.88
2022-08-24T16:35:20.570Z,5.97
2022-08-24T16:37:48.545Z,5.53
2022-08-24T16:40:17.953Z,6.28
2022-08-24T16:42:46.191Z,5.95
2022-08-24T16:45:19.124Z,7.85
2022-08-24T16:47:48.096Z,5.85
2022-08-24T16:50:18.933Z,5.22
2022-08-24T16:52:46.925Z,5.45
2022-08-24T16:55:15.124Z,5.22
2022-08-24T16:57:46.904Z,5.70
2022-08-24T17:00:21.971Z,5.28
2022-08-24T17:02:50.886Z,5.70
2022-08-24T17:05:19.657Z,5.38
2022-08-24T17:07:48.581Z,7.20
2022-08-24T17:10:19.779Z,6.47
2022-08-24T17:12:51.854Z,6.40
2022-08-24T17:15:20.802Z,5.95
2022-08-24T17:17:57.317Z,6.10
2022-08-24T17:20:25.589Z,5.97
2022-08-24T17:22:53.401Z,5.72
2022-08-24T17:25:21.392Z,5.90
2022-08-24T17:27:52.697Z,5.82
2022-08-24T17:30:23.015Z,5.88
2022-08-24T17:32:52.434Z,5.80
2022-08-24T17:35:20.886Z,6.47
2022-08-24T17:37:51.060Z,6.55
2022-08-24T17:40:24.479Z,5.38
2022-08-24T17:42:54.178Z,5.80
2022-08-24T17:45:23.324Z,5.28
2022-08-24T17:47:52.754Z,4.65
2022-08-24T17:50:24.165Z,5.80
2022-08-24T17:52:56.264Z,6.07
2022-08-24T17:55:29.491Z,5.57
2022-08-24T17:57:59.135Z,5.65
2022-08-24T18:00:27.148Z,5.65
2022-08-24T18:02:55.039Z,6.97
2022-08-24T18:05:22.889Z,5.72
2022-08-24T18:07:55.124Z,8.63
2022-08-24T18:10:26.295Z,5.55
2022-08-24T18:12:54.794Z,6.05
2022-08-24T18:15:35.807Z,5.60
2022-08-24T18:18:09.296Z,6.28
2022-08-24T18:20:42.397Z,5.05
2022-08-24T18:23:11.934Z,5.43
2022-08-24T18:25:48.290Z,5.95
2022-08-24T18:28:20.785Z,5.47
2022-08-24T18:30:50.157Z,6.20
2022-08-24T18:33:18.254Z,6.07
2022-08-24T18:35:46.856Z,5.97
2022-08-24T18:38:14.931Z,6.30
2022-08-24T18:40:52.121Z,6.43
2022-08-24T18:43:24.599Z,6.60
2022-08-24T18:45:54.936Z,7.05
2022-08-24T18:48:23.700Z,6.30
2022-08-24T18:50:53.150Z,7.00
2022-08-24T18:53:25.592Z,8.05
2022-08-24T18:55:53.520Z,8.10
2022-08-24T18:58:21.800Z,9.18
2022-08-24T19:00:51.082Z,8.77
2022-08-24T19:03:24.609Z,8.63
2022-08-24T19:05:52.553Z,8.57
2022-08-24T19:08:20.872Z,10.02
2022-08-24T19:10:48.864Z,9.32
2022-08-24T19:13:18.351Z,9.02
2022-08-24T19:15:47.553Z,9.93
2022-08-24T19:18:17.319Z,9.75
2022-08-24T19:20:50.593Z,9.25
2022-08-24T19:23:24.116Z,9.25
2022-08-24T19:25:54.481Z,9.25
2022-08-24T19:28:23.985Z,10.07
2022-08-24T19:30:56.684Z,9.13
2022-08-24T19:33:28.293Z,9.32
2022-08-24T19:35:59.032Z,9.02
2022-08-24T19:38:27.246Z,9.48
2022-08-24T19:40:58.052Z,9.13
2022-08-24T19:43:27.950Z,10.43
2022-08-24T19:46:02.538Z,10.38
2022-08-24T19:48:31.641Z,10.57
2022-08-24T19:51:04.064Z,9.57
2022-08-24T19:53:35.298Z,9.60
2022-08-24T19:56:04.010Z,8.75
2022-08-24T19:58:44.439Z,9.18
2022-08-24T20:01:18.837Z,9.70
2022-08-24T20:03:46.998Z,8.63
2022-08-24T20:06:18.949Z,10.95
2022-08-24T20:08:48.374Z,10.68
2022-08-24T20:11:17.459Z,10.80
2022-08-24T20:13:46.166Z,11.05
2022-08-24T20:16:18.186Z,11.60
2022-08-24T20:18:47.548Z,12.30
2022-08-24T20:21:17.652Z,12.50
2022-08-24T20:23:45.961Z,12.45
2022-08-24T20:26:15.253Z,12.57
2022-08-24T20:28:47.852Z,14.70
2022-08-24T20:31:17.195Z,14.35
2022-08-24T20:33:45.489Z,13.00
2022-08-24T20:36:26.621Z,14.10
2022-08-24T20:38:58.302Z,14.43
2022-08-24T20:41:26.934Z,11.80
2022-08-24T20:43:55.086Z,11.80
2022-08-24T20:46:23.434Z,10.30
2022-08-24T20:48:55.652Z,11.63
2022-08-24T20:51:25.791Z,11.82
2022-08-24T20:53:53.849Z,11.55
2022-08-24T20:56:30.740Z,11.70
2022-08-24T20:59:01.688Z,11.50
2022-08-24T21:01:30.033Z,10.60
2022-08-24T21:04:02.846Z,10.77
2022-08-24T21:06:35.202Z,10.88
2022-08-24T21:09:04.890Z,11.70
2022-08-24T21:11:33.525Z,10.02
2022-08-24T21:14:05.473Z,10.90
2022-08-24T21:16:37.500Z,10.65
2022-08-24T21:19:05.469Z,9.80
2022-08-24T21:21:35.355Z,9.80
2022-08-24T21:24:04.697Z,10.50
2022-08-24T21:26:35.013Z,9.68
2022-08-24T21:29:06.669Z,10.70
2022-08-24T21:31:35.137Z,10.18
2022-08-24T21:34:22.667Z,9.57
2022-08-24T21:36:54.243Z,9.80
2022-08-24T21:39:22.566Z,10.63
2022-08-24T21:41:50.455Z,10.80
2022-08-24T21:44:18.450Z,9.60
2022-08-24T21:46:46.406Z,10.80
2022-08-24T21:49:15.232Z,9.75
2022-08-24T21:51:43.119Z,9.73
2022-08-24T21:54:13.161Z,10.80
2022-08-24T21:56:41.490Z,9.90
2022-08-24T21:59:09.603Z,10.05
2022-08-24T22:01:38.773Z,9.95
2022-08-24T22:04:08.027Z,9.70
2022-08-24T22:06:36.471Z,9.90
2022-08-24T22:09:05.577Z,10.52
2022-08-24T22:11:35.226Z,10.10
2022-08-24T22:14:04.632Z,9.48
2022-08-24T22:16:32.912Z,9.55
2022-08-24T22:19:05.728Z,10.13
2022-08-24T22:21:36.176Z,9.45
2022-08-24T22:24:05.179Z,9.93
2022-08-24T22:26:35.685Z,9.45
2022-08-24T22:29:06.253Z,9.50
2022-08-24T22:31:40.633Z,10.07
2022-08-24T22:34:12.537Z,9.48
2022-08-24T22:36:47.333Z,9.23
2022-08-24T22:39:15.421Z,9.30
2022-08-24T22:41:45.154Z,9.40
2022-08-24T22:44:21.932Z,8.85
2022-08-24T22:46:53.284Z,9.57
2022-08-24T22:49:24.491Z,10.43
2022-08-24T22:51:53.028Z,8.82
2022-08-24T22:54:24.541Z,8.75
2022-08-24T22:56:57.177Z,9.20
2022-08-24T22:59:28.460Z,9.50
2022-08-24T23:01:58.222Z,8.15
2022-08-24T23:04:29.702Z,9.65
2022-08-24T23:06:57.705Z,9.18
2022-08-24T23:09:25.840Z,9.63
2022-08-24T23:11:55.654Z,8.70
2022-08-24T23:14:25.391Z,8.27
2022-08-24T23:16:53.860Z,9.30
2022-08-24T23:19:42.726Z,9.48
2022-08-24T23:22:14.729Z,9.68
2022-08-24T23:24:45.049Z,9.57
2022-08-24T23:27:16.665Z,9.07
2022-08-24T23:29:45.971Z,8.95
2022-08-24T23:32:17.888Z,10.32
2022-08-24T23:34:46.748Z,17.38
2022-08-24T23:37:15.545Z,20.08
2022-08-24T23:39:44.021Z,9.60
2022-08-24T23:42:12.392Z,9.95
2022-08-24T23:44:42.213Z,9.43
2022-08-24T23:47:10.221Z,10.30
2022-08-24T23:49:39.773Z,10.13
2022-08-24T23:52:07.633Z,10.82
2022-08-24T23:54:35.831Z,9.35
2022-08-24T23:57:08.597Z,35.30
2022-08-24T23:59:36.981Z,9.73
